createdAt,value
2022-08-22T02:21:54.278Z,0.80
2022-08-22T02:25:15.798Z,0.65
2022-08-22T02:28:57.771Z,0.20
2022-08-22T02:32:25.876Z,0.50
2022-08-22T02:35:41.099Z,0.30
2022-08-22T02:39:14.181Z,0.47
2022-08-22T02:42:24.106Z,0.40
2022-08-22T02:46:04.402Z,0.38
2022-08-22T02:49:27.587Z,0.35
2022-08-22T02:52:53.901Z,0.40
2022-08-22T02:56:15.474Z,0.30
2022-08-22T02:59:39.147Z,0.20
2022-08-22T03:03:01.404Z,0.30
2022-08-22T03:06:35.193Z,0.40
2022-08-22T03:10:00.753Z,0.45
2022-08-22T03:13:11.534Z,0.30
2022-08-22T03:16:26.401Z,0.30
2022-08-22T03:20:21.375Z,0.40
2022-08-22T03:23:28.974Z,0.20
2022-08-22T03:26:37.969Z,0.28
2022-08-22T03:29:48.607Z,0.30
2022-08-22T03:33:14.209Z,0.40
2022-08-22T03:36:18.083Z,0.40
2022-08-22T03:39:43.948Z,0.30
2022-08-22T03:43:05.272Z,0.40
2022-08-22T03:46:32.750Z,0.20
2022-08-22T03:50:22.506Z,0.20
2022-08-22T03:53:49.007Z,0.50
2022-08-22T03:57:29.970Z,0.40
2022-08-22T04:01:04.932Z,0.50
2022-08-22T04:04:11.653Z,0.40
2022-08-22T04:07:15.984Z,0.22
2022-08-22T04:10:52.211Z,0.50
2022-08-22T04:14:09.353Z,0.60
2022-08-22T04:17:50.124Z,0.20
2022-08-22T04:21:16.846Z,0.40
2022-08-22T04:24:57.515Z,0.28
2022-08-22T04:28:23.397Z,0.38
2022-08-22T04:31:37.134Z,0.30
2022-08-22T04:34:52.859Z,0.30
2022-08-22T04:38:21.204Z,0.40
2022-08-22T04:42:30.844Z,0.20
2022-08-22T04:45:40.194Z,0.30
2022-08-22T04:48:55.066Z,0.35
2022-08-22T04:52:19.292Z,0.20
2022-08-22T04:55:42.104Z,0.20
2022-08-22T04:58:56.078Z,0.50
2022-08-22T05:02:07.261Z,0.32
2022-08-22T05:05:24.059Z,0.50
2022-08-22T05:11:36.558Z,0.30
2022-08-22T05:14:45.441Z,0.60
2022-08-22T05:17:52.344Z,0.90
2022-08-22T05:21:00.033Z,0.30
2022-08-22T05:24:14.733Z,0.57
2022-08-22T05:27:22.399Z,0.40
2022-08-22T05:33:54.183Z,0.45
2022-08-22T05:37:09.087Z,0.20
2022-08-22T05:40:22.803Z,0.32
2022-08-22T05:43:27.259Z,0.70
2022-08-22T05:46:45.795Z,0.70
2022-08-22T05:50:09.550Z,0.45
2022-08-22T05:53:39.785Z,0.70
2022-08-22T05:56:48.074Z,0.38
2022-08-22T06:00:01.617Z,0.70
2022-08-22T06:03:39.975Z,0.75
2022-08-22T06:07:15.650Z,0.50
2022-08-22T06:10:27.868Z,0.40
2022-08-22T06:13:35.464Z,0.38
2022-08-22T06:16:48.723Z,0.70
2022-08-22T06:19:54.485Z,0.32
2022-08-22T06:23:01.940Z,0.50
2022-08-22T06:26:20.435Z,1.02
2022-08-22T06:29:38.707Z,0.50
2022-08-22T06:32:59.212Z,0.30
2022-08-22T06:36:32.127Z,0.50
2022-08-22T06:39:42.790Z,0.47
2022-08-22T06:42:51.232Z,0.40
2022-08-22T06:45:55.468Z,0.32
2022-08-22T06:49:00.791Z,0.45
2022-08-22T06:52:09.486Z,0.80
2022-08-22T06:55:14.063Z,1.20
2022-08-22T06:58:33.875Z,0.50
2022-08-22T07:01:46.178Z,0.70
2022-08-22T07:04:52.217Z,0.32
2022-08-22T07:07:57.148Z,0.40
2022-08-22T07:11:12.330Z,0.50
2022-08-22T07:14:25.072Z,0.32
2022-08-22T07:17:35.888Z,1.08
2022-08-22T07:20:45.790Z,0.60
2022-08-22T07:23:50.373Z,1.92
2022-08-22T07:27:13.401Z,0.70
2022-08-22T07:30:28.034Z,1.17
2022-08-22T07:33:47.309Z,1.30
2022-08-22T07:37:17.531Z,0.40
2022-08-22T07:40:57.219Z,0.40
2022-08-22T07:44:53.618Z,0.45
2022-08-22T07:48:09.144Z,0.50
2022-08-22T07:51:18.877Z,1.00
2022-08-22T07:54:35.909Z,0.80
2022-08-22T07:57:44.170Z,0.90
2022-08-22T08:00:49.748Z,0.90
2022-08-22T08:04:04.464Z,2.00
2022-08-22T08:07:10.419Z,0.90
2022-08-22T08:10:19.554Z,0.80
2022-08-22T08:13:36.534Z,0.47
2022-08-22T08:17:08.109Z,0.60
2022-08-22T08:20:15.000Z,0.50
2022-08-22T08:23:23.453Z,0.40
2022-08-22T08:27:13.625Z,0.57
2022-08-22T08:30:41.664Z,0.50
2022-08-22T08:33:50.834Z,0.63
2022-08-22T08:37:18.740Z,0.50
2022-08-22T08:40:54.365Z,0.73
2022-08-22T08:44:01.048Z,0.63
2022-08-22T08:47:35.499Z,0.93
2022-08-22T08:51:16.827Z,1.58
2022-08-22T08:54:33.513Z,0.85
2022-08-22T08:58:14.234Z,1.20
2022-08-22T09:01:54.911Z,1.40
2022-08-22T09:05:16.317Z,0.80
2022-08-22T09:08:55.141Z,0.90
2022-08-22T09:12:11.662Z,0.80
2022-08-22T09:15:43.418Z,1.10
2022-08-22T09:19:11.715Z,0.85
2022-08-22T09:22:50.760Z,0.80
2022-08-22T09:26:13.958Z,0.60
2022-08-22T09:29:55.529Z,0.50
2022-08-22T09:33:14.628Z,0.70
2022-08-22T09:36:33.364Z,1.48
2022-08-22T09:39:51.634Z,0.40
2022-08-22T09:43:12.657Z,0.90
2022-08-22T09:46:36.915Z,1.15
2022-08-22T09:50:18.945Z,0.60
2022-08-22T09:53:41.102Z,0.60
2022-08-22T09:56:44.768Z,0.80
2022-08-22T10:00:06.650Z,0.60
2022-08-22T10:03:24.087Z,0.57
2022-08-22T10:06:42.634Z,0.70
2022-08-22T10:10:11.928Z,0.68
2022-08-22T10:13:38.936Z,0.57
2022-08-22T10:17:12.434Z,0.75
2022-08-22T10:20:22.802Z,1.15
2022-08-22T10:23:42.587Z,0.90
2022-08-22T10:26:55.552Z,1.13
2022-08-22T10:30:16.438Z,1.30
2022-08-22T10:33:52.369Z,1.20
2022-08-22T10:37:15.527Z,1.20
2022-08-22T10:40:28.807Z,0.68
2022-08-22T10:43:56.464Z,1.10
2022-08-22T10:47:13.019Z,1.02
2022-08-22T10:50:50.941Z,1.73
2022-08-22T10:54:58.782Z,1.30
2022-08-22T10:59:12.988Z,0.90
2022-08-22T11:02:17.778Z,0.95
2022-08-22T11:09:40.698Z,0.95
2022-08-22T11:12:55.333Z,1.00
2022-08-22T11:16:19.541Z,1.42
2022-08-22T11:20:09.569Z,1.52
2022-08-22T11:23:54.202Z,1.25
2022-08-22T11:27:38.441Z,1.10
2022-08-22T11:31:36.657Z,1.40
2022-08-22T11:34:57.383Z,1.50
2022-08-22T11:38:38.849Z,1.30
2022-08-22T11:42:52.755Z,1.40
2022-08-22T11:46:23.346Z,1.58
2022-08-22T11:50:19.860Z,1.60
2022-08-22T11:53:51.166Z,1.80
2022-08-22T11:58:03.812Z,1.42
2022-08-22T12:02:04.791Z,2.05
2022-08-22T12:06:01.819Z,1.85
2022-08-22T12:17:33.541Z,2.85
2022-08-22T12:21:04.353Z,3.00
2022-08-22T12:24:35.090Z,3.15
2022-08-22T12:27:48.256Z,2.80
2022-08-22T12:31:11.824Z,3.38
2022-08-22T12:34:19.015Z,2.20
2022-08-22T12:40:52.596Z,2.00
2022-08-22T12:44:18.840Z,2.22
2022-08-22T12:47:37.398Z,1.80
2022-08-22T12:51:17.502Z,2.67
2022-08-22T12:55:11.663Z,2.33
2022-08-22T12:58:51.290Z,2.40
2022-08-22T13:02:00.023Z,1.92
2022-08-22T13:05:19.691Z,1.92
2022-08-22T13:08:31.639Z,1.70
2022-08-22T13:11:39.369Z,2.08
2022-08-22T13:14:48.446Z,1.38
2022-08-22T13:17:52.896Z,2.10
2022-08-22T13:20:59.342Z,1.90
2022-08-22T13:27:29.833Z,1.48
2022-08-22T13:30:43.783Z,1.73
2022-08-22T13:33:49.049Z,1.48
2022-08-22T13:37:00.352Z,1.70
2022-08-22T13:40:09.035Z,2.03
2022-08-22T13:43:38.902Z,1.80
2022-08-22T13:46:58.181Z,2.75
2022-08-22T13:50:19.759Z,1.70
2022-08-22T13:54:01.089Z,1.90
2022-08-22T13:57:21.255Z,2.33
2022-08-22T14:01:01.766Z,1.88
2022-08-22T14:11:19.639Z,1.90
2022-08-22T14:14:34.931Z,1.52
2022-08-22T14:17:44.502Z,1.70
2022-08-22T14:20:52.754Z,2.60
2022-08-22T14:24:01.285Z,2.08
2022-08-22T14:27:15.464Z,2.60
2022-08-22T14:30:24.621Z,2.33
2022-08-22T14:33:34.964Z,1.55
2022-08-22T14:36:56.589Z,1.88
2022-08-22T14:40:04.121Z,1.85
2022-08-22T14:43:24.121Z,1.63
2022-08-22T14:46:34.505Z,1.17
2022-08-22T14:49:56.033Z,1.80
2022-08-22T14:53:31.536Z,1.58
2022-08-22T14:56:40.603Z,1.67
2022-08-22T14:59:46.029Z,1.70
2022-08-22T15:03:08.793Z,2.00
2022-08-22T15:06:32.987Z,1.90
2022-08-22T15:09:40.569Z,1.83
2022-08-22T15:12:52.126Z,2.50
2022-08-22T15:16:01.516Z,1.80
2022-08-22T15:19:42.519Z,2.25
2022-08-22T15:22:52.131Z,1.73
2022-08-22T15:29:19.101Z,1.95
2022-08-22T15:32:27.864Z,1.92
2022-08-22T15:35:33.482Z,1.80
2022-08-22T15:38:46.906Z,2.10
2022-08-22T15:41:52.001Z,1.75
2022-08-22T15:44:56.521Z,1.60
2022-08-22T15:48:01.825Z,2.10
2022-08-22T15:51:15.078Z,1.63
2022-08-22T15:54:27.028Z,1.95
2022-08-22T15:57:41.790Z,1.80
2022-08-22T16:01:05.356Z,1.65
2022-08-22T16:04:39.385Z,1.60
2022-08-22T16:07:52.029Z,1.90
2022-08-22T16:11:05.239Z,1.60
2022-08-22T16:14:46.790Z,2.05
2022-08-22T16:17:53.500Z,1.77
2022-08-22T16:20:58.584Z,2.17
2022-08-22T16:24:02.209Z,2.25
2022-08-22T16:27:21.658Z,2.40
2022-08-22T16:30:35.820Z,2.45
2022-08-22T16:33:42.272Z,1.98
2022-08-22T16:36:55.805Z,2.70
2022-08-22T16:39:59.391Z,2.50
2022-08-22T16:43:20.882Z,2.65
2022-08-22T16:46:33.158Z,5.32
2022-08-22T16:49:52.654Z,3.90
2022-08-22T16:53:20.849Z,3.65
2022-08-22T16:56:31.203Z,3.70
2022-08-22T17:00:11.324Z,2.67
2022-08-22T17:03:48.889Z,2.25
2022-08-22T17:07:06.988Z,2.08
2022-08-22T17:10:13.265Z,1.90
2022-08-22T17:13:37.879Z,1.90
2022-08-22T17:17:04.441Z,2.13
2022-08-22T17:20:53.092Z,2.07
2022-08-22T17:24:33.696Z,2.30
2022-08-22T17:27:43.708Z,2.10
2022-08-22T17:31:11.478Z,2.15
2022-08-22T17:34:18.188Z,2.40
2022-08-22T17:37:31.399Z,2.42
2022-08-22T17:40:42.488Z,2.00
2022-08-22T17:43:59.993Z,2.08
2022-08-22T17:47:16.850Z,2.70
2022-08-22T17:50:37.325Z,2.17
2022-08-22T17:53:55.455Z,2.80
2022-08-22T17:57:21.793Z,2.70
2022-08-22T18:00:36.728Z,2.80
2022-08-22T18:03:46.404Z,2.75
2022-08-22T18:06:57.203Z,2.80
2022-08-22T18:10:04.074Z,2.60
2022-08-22T18:13:30.460Z,2.47
2022-08-22T18:16:44.959Z,2.90
2022-08-22T18:19:58.607Z,3.03
2022-08-22T18:23:21.290Z,2.50
2022-08-22T18:26:39.893Z,2.65
2022-08-22T18:29:45.646Z,2.80
2022-08-22T18:32:56.402Z,2.58
2022-08-22T18:36:16.903Z,2.42
2022-08-22T18:39:29.210Z,2.47
2022-08-22T18:42:52.946Z,2.80
2022-08-22T18:46:03.794Z,3.10
2022-08-22T18:49:41.125Z,3.20
2022-08-22T18:52:44.660Z,3.05
2022-08-22T18:55:57.547Z,2.75
2022-08-22T18:59:11.347Z,2.85
2022-08-22T19:02:35.407Z,3.13
2022-08-22T19:06:00.945Z,3.22
2022-08-22T19:09:07.759Z,2.80
2022-08-22T19:12:23.655Z,2.97
2022-08-22T19:15:53.446Z,2.95
2022-08-22T19:19:02.049Z,2.95
2022-08-22T19:22:20.810Z,2.95
2022-08-22T19:25:28.640Z,3.28
2022-08-22T19:31:44.948Z,2.90
2022-08-22T19:34:48.835Z,3.13
2022-08-22T19:38:03.141Z,3.33
2022-08-22T19:41:06.781Z,3.80
2022-08-22T19:44:32.897Z,3.53
2022-08-22T19:47:42.970Z,3.17
2022-08-22T19:50:46.607Z,3.53
2022-08-22T19:54:16.674Z,3.58
2022-08-22T19:57:38.663Z,3.35
2022-08-22T20:00:45.379Z,3.70
2022-08-22T20:04:21.098Z,3.47
2022-08-22T20:07:40.117Z,3.83
2022-08-22T20:11:04.870Z,3.35
2022-08-22T20:14:31.278Z,3.08
2022-08-22T20:17:42.935Z,3.33
2022-08-22T20:21:01.451Z,3.20
2022-08-22T20:24:07.771Z,3.03
2022-08-22T20:27:16.106Z,3.50
2022-08-22T20:30:37.985Z,3.63
2022-08-22T20:33:46.026Z,3.40
2022-08-22T20:36:59.717Z,2.72
2022-08-22T20:40:57.084Z,3.05
2022-08-22T20:44:13.459Z,3.00
2022-08-22T20:47:24.659Z,2.78
2022-08-22T20:50:29.817Z,3.35
2022-08-22T20:53:34.581Z,3.33
2022-08-22T20:56:53.013Z,4.68
2022-08-22T21:00:04.955Z,3.53
2022-08-22T21:03:33.309Z,3.67
2022-08-22T21:06:39.276Z,3.10
2022-08-22T21:10:01.329Z,3.13
2022-08-22T21:13:09.709Z,2.58
2022-08-22T21:16:31.220Z,3.20
2022-08-22T21:19:35.670Z,2.83
2022-08-22T21:22:39.200Z,3.58
2022-08-22T21:26:13.019Z,3.33
2022-08-22T21:29:15.966Z,2.63
2022-08-22T21:32:32.218Z,3.50
2022-08-22T21:35:35.670Z,3.30
2022-08-22T21:38:41.598Z,3.75
2022-08-22T21:41:53.496Z,3.85
2022-08-22T21:45:03.427Z,4.30
2022-08-22T21:48:33.736Z,4.25
2022-08-22T21:51:43.736Z,3.97
2022-08-22T21:54:47.724Z,4.22
2022-08-22T21:58:12.743Z,3.80
2022-08-22T22:01:36.285Z,4.63
2022-08-22T22:04:46.192Z,4.20
2022-08-22T22:07:49.822Z,4.30
2022-08-22T22:10:56.473Z,4.20
2022-08-22T22:14:00.634Z,4.15
2022-08-22T22:17:04.637Z,4.72
2022-08-22T22:20:08.914Z,3.78
2022-08-22T22:23:12.961Z,4.40
2022-08-22T22:26:16.758Z,4.60
2022-08-22T22:29:21.837Z,4.20
2022-08-22T22:32:25.680Z,4.22
2022-08-22T22:35:30.003Z,4.25
2022-08-22T22:38:34.404Z,4.68
2022-08-22T22:41:38.671Z,4.20
2022-08-22T22:44:46.458Z,4.03
2022-08-22T22:47:51.334Z,2.95
2022-08-22T22:50:55.247Z,2.92
2022-08-22T22:54:01.691Z,4.70
2022-08-22T22:57:05.126Z,3.60
2022-08-22T23:00:17.355Z,4.50
2022-08-22T23:03:21.475Z,4.63
2022-08-22T23:06:27.839Z,4.32
2022-08-22T23:09:38.439Z,4.47
2022-08-22T23:12:48.661Z,3.90
2022-08-22T23:15:53.018Z,4.15
2022-08-22T23:18:57.355Z,4.10
2022-08-22T23:22:01.806Z,4.07
2022-08-22T23:25:07.011Z,3.58
2022-08-22T23:28:11.017Z,4.72
2022-08-22T23:31:30.261Z,4.28
2022-08-22T23:34:39.270Z,4.65
2022-08-22T23:37:42.915Z,4.35
2022-08-22T23:40:46.484Z,4.78
2022-08-22T23:43:52.786Z,4.70
2022-08-22T23:46:58.175Z,4.70
2022-08-22T23:50:06.179Z,4.80
2022-08-22T23:53:10.502Z,4.03
2022-08-22T23:56:24.110Z,4.55
2022-08-22T23:59:34.313Z,4.50
